createdAt,value
2022-10-27T00:00:59.836Z,98821.19
2022-10-27T00:04:05.689Z,98822.53
2022-10-27T00:07:12.011Z,98812.88
2022-10-27T00:10:21.926Z,98821.53
2022-10-27T00:13:32.011Z,98820.31
2022-10-27T00:16:37.760Z,98824.47
2022-10-27T00:19:43.341Z,98819.50
2022-10-27T00:22:49.193Z,98823.66
2022-10-27T00:25:59.025Z,98813.81
2022-10-27T00:29:07.206Z,98815.66
2022-10-27T00:32:12.850Z,98816.94
2022-10-27T00:35:18.704Z,98815.78
2022-10-27T00:38:26.020Z,98820.53
2022-10-27T00:41:35.331Z,98819.19
2022-10-27T00:44:47.344Z,98817.63
2022-10-27T00:47:53.810Z,98816.97
2022-10-27T00:51:03.010Z,98817.66
2022-10-27T00:54:09.369Z,98816.31
2022-10-27T00:57:16.599Z,98807.34
2022-10-27T01:00:25.353Z,98816.50
2022-10-27T01:03:31.752Z,98814.16
2022-10-27T01:06:39.486Z,98820.94
2022-10-27T01:09:46.785Z,98831.88
2022-10-27T01:12:54.019Z,98832.66
2022-10-27T01:16:25.227Z,98828.69
2022-10-27T01:20:12.512Z,98832.31
2022-10-27T01:23:36.664Z,98828.88
2022-10-27T01:26:54.998Z,98836.09
2022-10-27T01:30:14.840Z,98837.56
2022-10-27T01:33:36.092Z,98838.25
2022-10-27T01:36:52.920Z,98835.56
2022-10-27T01:40:09.596Z,98830.22
2022-10-27T01:43:23.758Z,98838.88
2022-10-27T01:46:29.685Z,98836.81
2022-10-27T01:49:45.578Z,98846.03
2022-10-27T01:52:54.421Z,98850.91
2022-10-27T01:56:22.720Z,98855.16
2022-10-27T02:00:04.453Z,98847.66
2022-10-27T02:03:24.205Z,98852.97
2022-10-27T02:06:41.540Z,98848.69
2022-10-27T02:09:57.600Z,98853.47
2022-10-27T02:13:06.390Z,98849.16
2022-10-27T02:16:20.114Z,98858.19
2022-10-27T02:19:32.341Z,98848.41
2022-10-27T02:22:46.270Z,98856.25
2022-10-27T02:26:02.740Z,98860.56
2022-10-27T02:29:18.142Z,98857.56
2022-10-27T02:32:29.010Z,98852.91
2022-10-27T02:35:44.918Z,98858.41
2022-10-27T02:38:56.120Z,98860.28
2022-10-27T02:42:01.733Z,98855.47
2022-10-27T02:45:08.380Z,98851.00
2022-10-27T02:48:13.925Z,98857.00
2022-10-27T02:51:19.580Z,98857.84
2022-10-27T02:54:27.760Z,98860.00
2022-10-27T02:57:33.333Z,98857.22
2022-10-27T03:00:39.045Z,98864.38
2022-10-27T03:03:46.074Z,98867.25
2022-10-27T03:06:51.694Z,98868.06
2022-10-27T03:09:59.976Z,98868.41
2022-10-27T03:13:08.895Z,98871.25
2022-10-27T03:16:14.546Z,98869.75
2022-10-27T03:19:20.328Z,98876.75
2022-10-27T03:22:29.720Z,98879.41
2022-10-27T03:25:47.401Z,98886.25
2022-10-27T03:28:53.898Z,98890.06
2022-10-27T03:31:59.503Z,98888.22
2022-10-27T03:35:05.124Z,98890.59
2022-10-27T03:38:13.223Z,98897.09
2022-10-27T03:41:21.407Z,98897.09
2022-10-27T03:44:27.048Z,98900.25
2022-10-27T03:47:32.649Z,98896.91
2022-10-27T03:50:41.032Z,98898.91
2022-10-27T03:53:46.596Z,98898.06
2022-10-27T03:56:54.954Z,98903.59
2022-10-27T04:00:00.504Z,98908.25
2022-10-27T04:03:19.396Z,98904.56
2022-10-27T04:06:24.931Z,98905.94
2022-10-27T04:09:30.520Z,98907.09
2022-10-27T04:12:41.110Z,98904.44
2022-10-27T04:15:46.696Z,98906.25
2022-10-27T04:18:52.705Z,98913.75
2022-10-27T04:21:58.402Z,98916.25
2022-10-27T04:25:05.763Z,98923.75
2022-10-27T04:28:15.535Z,98920.41
2022-10-27T04:31:21.225Z,98916.41
2022-10-27T04:34:26.874Z,98925.41
2022-10-27T04:37:32.543Z,98926.91
2022-10-27T04:40:38.158Z,98930.06
2022-10-27T04:43:46.606Z,98927.75
2022-10-27T04:46:52.242Z,98928.72
2022-10-27T04:50:10.113Z,98928.09
2022-10-27T04:53:22.640Z,98930.38
2022-10-27T04:56:29.180Z,98931.22
2022-10-27T04:59:37.369Z,98932.28
2022-10-27T05:02:43.045Z,98932.31
2022-10-27T05:05:48.957Z,98941.38
2022-10-27T05:12:01.072Z,98943.16
2022-10-27T05:15:11.447Z,98947.09
2022-10-27T05:18:20.707Z,98949.16
2022-10-27T05:21:26.303Z,98956.50
2022-10-27T05:24:32.010Z,98956.44
2022-10-27T05:27:38.477Z,98958.16
2022-10-27T05:30:46.747Z,98965.38
2022-10-27T05:33:52.404Z,98969.72
2022-10-27T05:36:57.997Z,98968.22
2022-10-27T05:40:03.922Z,98973.72
2022-10-27T05:43:09.653Z,98972.66
2022-10-27T05:46:17.869Z,98970.88
2022-10-27T05:49:23.475Z,98985.13
2022-10-27T05:52:29.102Z,98991.81
2022-10-27T05:55:36.272Z,98985.25
2022-10-27T05:58:41.877Z,98979.63
2022-10-27T06:01:50.230Z,98993.22
2022-10-27T06:04:55.914Z,98991.31
2022-10-27T06:08:01.815Z,98994.28
2022-10-27T06:11:07.926Z,98995.34
2022-10-27T06:14:15.902Z,98998.34
2022-10-27T06:17:24.091Z,99007.84
2022-10-27T06:20:29.796Z,99013.38
2022-10-27T06:23:38.783Z,99016.09
2022-10-27T06:26:44.327Z,99014.72
2022-10-27T06:29:50.269Z,99027.78
2022-10-27T06:32:58.469Z,99027.19
2022-10-27T06:36:04.093Z,99030.16
2022-10-27T06:39:09.850Z,99039.34
2022-10-27T06:42:15.693Z,99046.47
2022-10-27T06:45:29.371Z,99042.72
2022-10-27T06:48:37.509Z,99053.06
2022-10-27T06:51:43.215Z,99056.09
2022-10-27T06:54:51.696Z,99061.78
2022-10-27T06:58:00.706Z,99061.47
2022-10-27T07:01:06.371Z,99065.00
2022-10-27T07:04:14.727Z,99066.84
2022-10-27T07:07:20.374Z,99078.03
2022-10-27T07:10:26.112Z,99068.44
2022-10-27T07:13:31.847Z,99074.41
2022-10-27T07:16:37.549Z,99080.13
2022-10-27T07:19:45.775Z,99076.69
2022-10-27T07:22:51.427Z,99085.94
2022-10-27T07:25:57.098Z,99082.28
2022-10-27T07:29:02.804Z,99089.63
2022-10-27T07:32:10.549Z,99091.19
2022-10-27T07:35:19.606Z,99090.00
2022-10-27T07:38:25.233Z,99093.53
2022-10-27T07:41:34.150Z,99099.41
2022-10-27T07:44:39.744Z,99099.94
2022-10-27T07:47:49.650Z,99102.09
2022-10-27T07:50:58.410Z,99109.97
2022-10-27T07:54:03.994Z,99113.09
2022-10-27T07:57:09.615Z,99111.38
2022-10-27T08:00:19.031Z,99115.59
2022-10-27T08:03:30.078Z,99112.31
2022-10-27T08:06:38.770Z,99121.16
2022-10-27T08:09:44.630Z,99129.50
2022-10-27T08:12:50.173Z,99124.63
2022-10-27T08:19:21.387Z,99134.59
2022-10-27T08:22:29.739Z,99133.66
2022-10-27T08:25:36.478Z,99138.41
2022-10-27T08:28:42.093Z,99129.94
2022-10-27T08:31:47.671Z,99141.25
2022-10-27T08:34:53.256Z,99141.03
2022-10-27T08:38:07.773Z,99154.81
2022-10-27T08:41:28.791Z,99154.47
2022-10-27T08:44:43.670Z,99143.44
2022-10-27T08:47:51.504Z,99159.41
2022-10-27T08:50:57.826Z,99156.53
2022-10-27T08:54:10.604Z,99159.59
2022-10-27T08:57:27.976Z,99159.13
2022-10-27T09:00:47.434Z,99155.69
2022-10-27T09:04:16.266Z,99162.59
2022-10-27T09:07:35.749Z,99155.41
2022-10-27T09:10:58.344Z,99157.81
2022-10-27T09:14:31.921Z,99153.47
2022-10-27T09:17:47.686Z,99156.19
2022-10-27T09:21:06.707Z,99162.13
2022-10-27T09:24:20.322Z,99164.63
2022-10-27T09:27:29.086Z,99159.94
2022-10-27T09:30:42.798Z,99152.25
2022-10-27T09:34:00.009Z,99157.56
2022-10-27T09:37:05.756Z,99163.44
2022-10-27T09:40:17.447Z,99162.91
2022-10-27T09:43:27.230Z,99168.03
2022-10-27T09:46:35.202Z,99171.75
2022-10-27T09:49:47.187Z,99171.38
2022-10-27T09:52:53.659Z,99162.25
2022-10-27T09:55:59.505Z,99165.88
2022-10-27T09:59:10.470Z,99173.19
2022-10-27T10:02:29.530Z,99169.72
2022-10-27T10:05:39.618Z,99175.72
2022-10-27T10:08:45.165Z,99168.25
2022-10-27T10:11:50.731Z,99165.84
2022-10-27T10:15:22.626Z,99169.13
2022-10-27T10:18:33.139Z,99165.97
2022-10-27T10:21:53.407Z,99169.41
2022-10-27T10:25:14.581Z,99169.22
2022-10-27T10:28:37.151Z,99155.63
2022-10-27T10:31:45.638Z,99159.72
2022-10-27T10:34:53.468Z,99161.13
2022-10-27T10:38:04.218Z,99158.56
2022-10-27T10:41:17.187Z,99165.66
2022-10-27T10:44:23.091Z,99163.00
2022-10-27T10:47:33.930Z,99153.63
2022-10-27T10:50:51.149Z,99147.13
2022-10-27T10:54:04.266Z,99149.19
2022-10-27T10:57:32.059Z,99145.88
2022-10-27T11:00:38.964Z,99149.25
2022-10-27T11:03:55.381Z,99141.16
2022-10-27T11:07:09.623Z,99143.50
2022-10-27T11:10:22.336Z,99147.88
2022-10-27T11:13:41.550Z,99150.00
2022-10-27T11:16:58.823Z,99144.06
2022-10-27T11:20:25.214Z,99145.25
2022-10-27T11:23:46.605Z,99140.97
2022-10-27T11:27:07.896Z,99140.19
2022-10-27T11:30:28.153Z,99134.19
2022-10-27T11:33:47.822Z,99135.97
2022-10-27T11:37:05.052Z,99131.88
2022-10-27T11:40:23.424Z,99129.94
2022-10-27T11:43:42.017Z,99125.13
2022-10-27T11:47:03.204Z,99124.22
2022-10-27T11:50:16.605Z,99121.84
2022-10-27T11:53:25.405Z,99124.78
2022-10-27T11:56:53.161Z,99125.56
2022-10-27T12:00:17.375Z,99123.81
2022-10-27T12:03:54.678Z,99134.38
2022-10-27T12:07:16.995Z,99130.31
2022-10-27T12:10:39.338Z,99133.13
2022-10-27T12:14:02.259Z,99135.63
2022-10-27T12:17:20.198Z,99132.13
2022-10-27T12:20:41.133Z,99123.38
2022-10-27T12:23:59.372Z,99127.31
2022-10-27T12:27:19.073Z,99130.97
2022-10-27T12:30:31.921Z,99131.56
2022-10-27T12:33:52.271Z,99129.09
2022-10-27T12:37:13.567Z,99121.66
2022-10-27T12:40:34.092Z,99122.50
2022-10-27T12:43:59.149Z,99117.66
2022-10-27T12:47:32.111Z,99114.88
2022-10-27T12:50:56.466Z,99120.94
2022-10-27T12:54:30.731Z,99121.41
2022-10-27T12:57:54.660Z,99124.72
2022-10-27T13:01:28.964Z,99122.72
2022-10-27T13:05:07.328Z,99124.66
2022-10-27T13:09:14.882Z,99116.38
2022-10-27T13:12:49.187Z,99121.91
2022-10-27T13:16:12.518Z,99114.06
2022-10-27T13:23:26.234Z,99129.38
2022-10-27T13:26:41.501Z,99126.75
2022-10-27T13:29:56.979Z,99123.81
2022-10-27T13:33:08.350Z,99127.91
2022-10-27T13:36:23.023Z,99127.66
2022-10-27T13:39:49.938Z,99120.84
2022-10-27T13:42:58.402Z,99125.13
2022-10-27T13:46:04.811Z,99131.41
2022-10-27T13:49:32.955Z,99130.66
2022-10-27T13:52:41.120Z,99124.00
2022-10-27T13:55:48.643Z,99120.25
2022-10-27T13:59:08.734Z,99126.72
2022-10-27T14:02:39.744Z,99126.13
2022-10-27T14:05:51.117Z,99121.56
2022-10-27T14:09:03.943Z,99124.25
2022-10-27T14:12:27.324Z,99126.97
2022-10-27T14:15:37.685Z,99130.31
2022-10-27T14:18:45.859Z,99127.88
2022-10-27T14:21:55.279Z,99125.38
2022-10-27T14:25:18.719Z,99125.53
2022-10-27T14:28:27.428Z,99123.31
2022-10-27T14:31:35.925Z,99128.31
2022-10-27T14:34:41.537Z,99128.94
2022-10-27T14:37:47.238Z,99127.88
2022-10-27T14:40:55.625Z,99132.88
2022-10-27T14:44:06.155Z,99132.88
2022-10-27T14:47:19.331Z,99123.56
2022-10-27T14:50:35.039Z,99127.91
2022-10-27T14:53:41.406Z,99123.50
2022-10-27T14:56:49.980Z,99132.22
2022-10-27T14:59:55.610Z,99126.22
2022-10-27T15:03:06.251Z,99128.06
2022-10-27T15:06:22.140Z,99122.47
2022-10-27T15:09:36.559Z,99120.19
2022-10-27T15:12:50.163Z,99117.91
2022-10-27T15:16:04.505Z,99122.84
2022-10-27T15:19:19.007Z,99119.13
2022-10-27T15:22:26.562Z,99119.91
2022-10-27T15:25:35.580Z,99117.00
2022-10-27T15:28:46.148Z,99120.03
2022-10-27T15:32:01.731Z,99109.81
2022-10-27T15:35:31.772Z,99117.59
2022-10-27T15:38:37.739Z,99120.56
2022-10-27T15:41:54.338Z,99120.66
2022-10-27T15:45:46.237Z,99120.34
2022-10-27T15:49:16.324Z,99119.59
2022-10-27T15:52:29.439Z,99124.88
2022-10-27T15:55:40.499Z,99117.03
2022-10-27T15:59:05.925Z,99120.88
2022-10-27T16:02:39.964Z,99123.44
2022-10-27T16:05:49.742Z,99129.13
2022-10-27T16:08:58.624Z,99119.97
2022-10-27T16:12:04.369Z,99120.34
2022-10-27T16:15:22.721Z,99118.00
2022-10-27T16:18:37.469Z,99118.72
2022-10-27T16:21:48.924Z,99124.94
2022-10-27T16:24:54.783Z,99122.81
2022-10-27T16:28:05.547Z,99128.00
2022-10-27T16:31:25.480Z,99125.97
2022-10-27T16:34:35.503Z,99123.38
2022-10-27T16:37:41.124Z,99132.25
2022-10-27T16:40:55.011Z,99124.84
2022-10-27T16:44:03.339Z,99122.16
2022-10-27T16:47:10.032Z,99132.06
2022-10-27T16:50:18.511Z,99136.59
2022-10-27T16:53:24.619Z,99134.66
2022-10-27T16:56:30.184Z,99141.59
2022-10-27T16:59:36.421Z,99139.00
2022-10-27T17:02:43.094Z,99136.41
2022-10-27T17:05:53.001Z,99140.81
2022-10-27T17:08:59.601Z,99137.84
2022-10-27T17:12:24.581Z,99133.03
2022-10-27T17:15:30.270Z,99128.44
2022-10-27T17:18:36.143Z,99131.03
2022-10-27T17:21:57.494Z,99138.16
2022-10-27T17:25:03.789Z,99147.53
2022-10-27T17:28:09.459Z,99143.16
2022-10-27T17:31:20.828Z,99147.13
2022-10-27T17:34:36.611Z,99147.91
2022-10-27T17:37:45.030Z,99144.50
2022-10-27T17:40:54.529Z,99147.03
2022-10-27T17:44:00.231Z,99163.97
2022-10-27T17:47:05.853Z,99156.78
2022-10-27T17:50:12.428Z,99155.34
2022-10-27T17:53:20.874Z,99153.91
2022-10-27T17:56:29.887Z,99160.22
2022-10-27T17:59:40.404Z,99162.06
2022-10-27T18:02:46.013Z,99162.25
2022-10-27T18:05:51.618Z,99160.16
2022-10-27T18:09:10.332Z,99165.69
2022-10-27T18:12:15.901Z,99166.25
2022-10-27T18:15:35.579Z,99173.97
2022-10-27T18:18:42.453Z,99170.50
2022-10-27T18:21:51.366Z,99168.47
2022-10-27T18:24:59.643Z,99166.16
2022-10-27T18:28:08.279Z,99159.97
2022-10-27T18:31:16.567Z,99163.44
2022-10-27T18:34:26.207Z,99172.91
2022-10-27T18:37:31.851Z,99162.97
2022-10-27T18:40:40.176Z,99165.47
2022-10-27T18:43:50.003Z,99168.81
2022-10-27T18:47:05.506Z,99167.84
2022-10-27T18:50:12.537Z,99167.13
2022-10-27T18:53:18.084Z,99164.41
2022-10-27T18:56:31.896Z,99161.63
2022-10-27T18:59:41.921Z,99168.16
2022-10-27T19:02:53.326Z,99170.31
2022-10-27T19:06:15.104Z,99174.69
2022-10-27T19:09:22.173Z,99170.19
2022-10-27T19:12:31.543Z,99162.53
2022-10-27T19:15:37.837Z,99156.81
2022-10-27T19:18:44.104Z,99155.34
2022-10-27T19:21:49.666Z,99153.84
2022-10-27T19:24:55.325Z,99152.88
2022-10-27T19:28:03.481Z,99158.34
2022-10-27T19:31:14.597Z,99156.81
2022-10-27T19:34:23.099Z,99147.50
2022-10-27T19:37:28.985Z,99150.63
2022-10-27T19:40:39.754Z,99154.66
2022-10-27T19:43:51.203Z,99156.16
2022-10-27T19:46:57.274Z,99151.47
2022-10-27T19:50:09.581Z,99156.03
2022-10-27T19:53:35.762Z,99160.91
2022-10-27T19:56:46.870Z,99152.22
2022-10-27T19:59:55.114Z,99150.91
2022-10-27T20:03:01.695Z,99151.75
2022-10-27T20:06:09.351Z,99142.56
2022-10-27T20:09:24.761Z,99152.94
2022-10-27T20:12:30.519Z,99158.09
2022-10-27T20:15:38.738Z,99148.91
2022-10-27T20:18:54.143Z,99154.94
2022-10-27T20:22:00.335Z,99157.44
2022-10-27T20:25:06.137Z,99154.13
2022-10-27T20:28:11.872Z,99161.28
2022-10-27T20:31:20.143Z,99161.63
2022-10-27T20:34:25.843Z,99160.50
2022-10-27T20:37:36.670Z,99158.50
2022-10-27T20:40:49.695Z,99154.66
2022-10-27T20:43:57.470Z,99162.34
2022-10-27T20:47:05.815Z,99158.00
2022-10-27T20:50:12.950Z,99159.03
2022-10-27T20:53:18.656Z,99155.81
2022-10-27T20:56:26.789Z,99157.78
2022-10-27T20:59:32.415Z,99154.31
2022-10-27T21:02:51.439Z,99152.66
2022-10-27T21:05:59.851Z,99154.97
2022-10-27T21:09:15.751Z,99145.09
2022-10-27T21:12:21.416Z,99154.16
2022-10-27T21:15:27.224Z,99142.63
2022-10-27T21:18:35.569Z,99147.78
2022-10-27T21:21:44.031Z,99138.63
2022-10-27T21:24:49.674Z,99145.31
2022-10-27T21:27:55.684Z,99141.16
2022-10-27T21:31:05.669Z,99140.97
2022-10-27T21:34:14.124Z,99132.28
2022-10-27T21:37:19.797Z,99132.91
2022-10-27T21:40:26.627Z,99133.25
2022-10-27T21:43:40.190Z,99127.38
2022-10-27T21:46:45.915Z,99118.53
2022-10-27T21:49:54.544Z,99126.19
2022-10-27T21:53:00.120Z,99120.47
2022-10-27T21:56:09.634Z,99122.09
2022-10-27T21:59:15.429Z,99132.72
2022-10-27T22:02:21.173Z,99128.97
2022-10-27T22:05:29.373Z,99128.63
2022-10-27T22:08:37.860Z,99129.28
2022-10-27T22:11:46.515Z,99133.81
2022-10-27T22:14:55.143Z,99126.66
2022-10-27T22:18:15.634Z,99122.34
2022-10-27T22:21:24.928Z,99140.69
2022-10-27T22:24:30.555Z,99141.66
2022-10-27T22:27:41.312Z,99143.28
2022-10-27T22:30:46.843Z,99143.56
2022-10-27T22:33:56.322Z,99146.44
2022-10-27T22:37:04.623Z,99156.16
2022-10-27T22:40:12.731Z,99147.56
2022-10-27T22:43:18.369Z,99149.50
2022-10-27T22:46:27.633Z,99147.59
2022-10-27T22:49:33.703Z,99145.84
2022-10-27T22:52:41.981Z,99144.13
2022-10-27T22:55:47.612Z,99146.16
2022-10-27T22:58:56.070Z,99149.97
2022-10-27T23:02:01.811Z,99146.84
2022-10-27T23:05:08.956Z,99143.75
2022-10-27T23:08:17.268Z,99152.56
2022-10-27T23:11:23.924Z,99152.94
2022-10-27T23:14:29.541Z,99143.13
2022-10-27T23:17:35.311Z,99139.72
2022-10-27T23:20:40.817Z,99160.16
2022-10-27T23:23:49.359Z,99157.56
2022-10-27T23:26:56.270Z,99153.47
2022-10-27T23:30:01.944Z,99157.34
2022-10-27T23:33:07.686Z,99140.94
2022-10-27T23:36:15.000Z,99146.72
2022-10-27T23:39:25.994Z,99148.44
2022-10-27T23:42:31.589Z,99146.16
2022-10-27T23:45:37.134Z,99143.28
2022-10-27T23:48:42.788Z,99146.53
2022-10-27T23:51:48.537Z,99143.34
2022-10-27T23:54:56.777Z,99134.47
2022-10-27T23:58:02.434Z,99138.09
